Time;durP1;ratioP1;P1;durP2;ratioP2;P2;SDS_P1;SDS_P2;PMS_P1;PMS_P2;Temp;Humidity;BMP_temperature;BMP_pressure;BME280_temperature;BME280_humidity;BME280_pressure;Samples;Min_cycle;Max_cycle;Signal;HPM_P1;HPM_P2
2024/01/03 00:00:56;;;;;;;;;;;5.40;99.90;;;;;;5036821;28;19916;-76
2024/01/03 00:03:22;;;;;;;;;;;5.40;99.90;;;;;;5036803;28;19912;-76
2024/01/03 00:05:48;;;;;;;;;;;5.40;99.90;;;;;;5055004;28;19904;-76
2024/01/03 00:08:27;;;;;;;;;;;5.50;99.90;;;;;;5036631;28;19958;-76
2024/01/03 00:10:56;;;;;;;;;;;5.50;99.90;;;;;;5036679;28;19909;-76
2024/01/03 00:13:34;;;;;;;;;;;5.50;99.90;;;;;;5036465;28;19908;-76
2024/01/03 00:16:00;;;;;;;;;;;5.50;99.90;;;;;;5036548;28;19916;-76
2024/01/03 00:18:51;;;;;;;;;;;5.40;99.90;;;;;;5054129;28;19904;-78
2024/01/03 00:21:22;;;;;;;;;;;5.40;99.90;;;;;;5032271;28;20345;-76
2024/01/03 00:23:50;;;;;;;;;;;5.50;99.90;;;;;;5037191;28;19915;-76
2024/01/03 00:26:15;;;;;;;;;;;5.40;99.90;;;;;;5054743;28;19927;-76
2024/01/03 00:28:41;;;;;;;;;;;5.40;99.90;;;;;;5054983;28;20365;-76
2024/01/03 00:31:10;;;;;;;;;;;5.40;99.90;;;;;;5054832;28;19908;-76
2024/01/03 00:33:39;;;;;;;;;;;5.40;99.90;;;;;;5037026;28;19923;-76
2024/01/03 00:36:05;;;;;;;;;;;5.50;99.90;;;;;;5055637;28;19905;-75
2024/01/03 00:38:35;;;;;;;;;;;5.50;99.90;;;;;;5036996;28;19914;-76
2024/01/03 00:41:01;;;;;;;;;;;5.40;99.90;;;;;;5055413;28;19912;-77
2024/01/03 00:43:26;;;;;;;;;;;5.40;99.90;;;;;;5055850;28;20007;-76
2024/01/03 00:45:52;;;;;;;;;;;5.20;99.90;;;;;;5055171;28;19912;-76
2024/01/03 00:48:18;;;;;;;;;;;5.20;99.90;;;;;;5055539;28;20319;-76
2024/01/03 00:50:44;;;;;;;;;;;5.20;99.90;;;;;;5055530;28;19905;-76
2024/01/03 00:53:10;;;;;;;;;;;5.20;99.90;;;;;;5055092;28;19909;-76
2024/01/03 00:55:36;;;;;;;;;;;5.30;99.90;;;;;;5055607;28;19905;-77
2024/01/03 00:58:02;;;;;;;;;;;5.30;99.90;;;;;;5056549;28;20278;-76
2024/01/03 01:00:27;;;;;;;;;;;5.30;99.90;;;;;;5055885;28;19912;-76
2024/01/03 01:02:53;;;;;;;;;;;5.30;99.90;;;;;;5056332;28;19905;-76
2024/01/03 01:05:18;;;;;;;;;;;5.20;99.90;;;;;;5038320;28;19904;-75
2024/01/03 01:07:44;;;;;;;;;;;5.20;99.90;;;;;;5038415;28;19905;-75
2024/01/03 01:10:09;;;;;;;;;;;5.10;99.90;;;;;;5056553;28;20456;-76
2024/01/03 01:12:35;;;;;;;;;;;5.20;99.90;;;;;;5060372;28;19904;-76
2024/01/03 01:15:01;;;;;;;;;;;5.20;99.90;;;;;;5042503;28;19948;-77
2024/01/03 01:17:26;;;;;;;;;;;5.20;99.90;;;;;;5043220;28;19995;-76
2024/01/03 01:19:52;;;;;;;;;;;5.10;99.90;;;;;;5042685;28;19913;-76
2024/01/03 01:22:18;;;;;;;;;;;5.20;99.90;;;;;;5061801;28;20484;-76
2024/01/03 01:24:43;;;;;;;;;;;5.10;99.90;;;;;;5043387;28;19911;-76
2024/01/03 01:27:09;;;;;;;;;;;5.20;99.90;;;;;;5043432;28;19905;-76
2024/01/03 01:29:34;;;;;;;;;;;5.10;99.90;;;;;;5043241;28;19904;-76
2024/01/03 01:32:02;;;;;;;;;;;5.20;99.90;;;;;;5043926;28;19955;-76
2024/01/03 01:34:27;;;;;;;;;;;5.20;99.90;;;;;;5062152;28;19959;-76
2024/01/03 01:36:53;;;;;;;;;;;5.20;99.90;;;;;;5061302;28;19908;-76
2024/01/03 01:39:19;;;;;;;;;;;5.20;99.90;;;;;;5062413;28;19979;-77
2024/01/03 01:41:44;;;;;;;;;;;5.20;99.90;;;;;;5061557;28;19912;-76
2024/01/03 01:44:10;;;;;;;;;;;5.20;99.90;;;;;;5058907;28;20003;-76
2024/01/03 01:46:37;;;;;;;;;;;5.20;99.90;;;;;;5041262;28;19948;-76
2024/01/03 01:49:06;;;;;;;;;;;5.20;99.90;;;;;;5041534;28;19913;-76
2024/01/03 01:51:32;;;;;;;;;;;5.10;99.90;;;;;;5040884;28;19911;-76
2024/01/03 01:53:58;;;;;;;;;;;5.10;99.90;;;;;;5059188;28;20345;-76
2024/01/03 01:56:24;;;;;;;;;;;5.10;99.90;;;;;;5059268;28;19909;-76
2024/01/03 01:58:50;;;;;;;;;;;5.10;99.90;;;;;;5060672;28;19912;-77
2024/01/03 02:01:17;;;;;;;;;;;5.10;99.90;;;;;;5060464;28;19966;-77
2024/01/03 02:03:43;;;;;;;;;;;5.20;99.90;;;;;;5039789;28;19957;-76
2024/01/03 02:06:09;;;;;;;;;;;5.20;99.90;;;;;;5056172;28;20399;-76
2024/01/03 02:08:35;;;;;;;;;;;5.20;99.90;;;;;;5056682;28;19911;-76
2024/01/03 02:11:01;;;;;;;;;;;5.20;99.90;;;;;;5038470;28;19912;-76
2024/01/03 02:13:26;;;;;;;;;;;5.30;99.90;;;;;;5056582;28;19916;-76
2024/01/03 02:15:52;;;;;;;;;;;5.20;99.90;;;;;;5056161;28;19909;-76
2024/01/03 02:18:18;;;;;;;;;;;5.20;99.90;;;;;;5038376;28;19976;-75
2024/01/03 02:20:44;;;;;;;;;;;5.20;99.90;;;;;;5055976;28;20442;-75
2024/01/03 02:23:10;;;;;;;;;;;5.30;99.90;;;;;;5054922;28;19908;-75
2024/01/03 02:25:35;;;;;;;;;;;5.10;99.90;;;;;;5056228;28;19963;-76
2024/01/03 02:28:01;;;;;;;;;;;5.10;99.90;;;;;;5038057;28;20281;-76
2024/01/03 02:30:26;;;;;;;;;;;5.10;99.90;;;;;;5056557;28;19908;-76
2024/01/03 02:32:52;;;;;;;;;;;5.30;99.90;;;;;;5055831;28;19989;-77
2024/01/03 02:35:17;;;;;;;;;;;5.20;99.90;;;;;;5038592;28;19913;-75
2024/01/03 02:37:43;;;;;;;;;;;5.20;99.90;;;;;;5038389;28;19905;-76
2024/01/03 02:40:09;;;;;;;;;;;5.20;99.90;;;;;;5056808;28;19971;-76
2024/01/03 02:42:34;;;;;;;;;;;5.20;99.90;;;;;;5056674;28;19913;-76
2024/01/03 02:45:00;;;;;;;;;;;5.10;99.90;;;;;;5056291;28;19908;-76
2024/01/03 02:47:25;;;;;;;;;;;5.10;99.90;;;;;;5056482;28;20361;-76
2024/01/03 02:49:57;;;;;;;;;;;5.20;99.90;;;;;;5056901;28;19908;-76
2024/01/03 02:52:23;;;;;;;;;;;5.10;99.90;;;;;;5038518;28;19905;-76
2024/01/03 02:54:49;;;;;;;;;;;5.30;99.90;;;;;;5038982;28;19935;-77
2024/01/03 02:57:15;;;;;;;;;;;5.10;99.90;;;;;;5056853;28;20380;-76
2024/01/03 02:59:40;;;;;;;;;;;5.20;99.90;;;;;;5039360;28;19905;-76
2024/01/03 03:02:06;;;;;;;;;;;5.10;99.90;;;;;;5056901;28;19916;-76
2024/01/03 03:04:31;;;;;;;;;;;5.20;99.90;;;;;;5057436;28;19909;-76
2024/01/03 03:06:57;;;;;;;;;;;5.10;99.90;;;;;;5057505;28;19962;-76
2024/01/03 03:09:23;;;;;;;;;;;5.10;99.90;;;;;;5057249;28;19912;-76
2024/01/03 03:11:49;;;;;;;;;;;5.10;99.90;;;;;;5057450;28;19919;-76
2024/01/03 03:14:15;;;;;;;;;;;5.00;99.90;;;;;;5039401;28;19904;-76
2024/01/03 03:16:41;;;;;;;;;;;5.10;99.90;;;;;;5039541;28;19967;-76
2024/01/03 03:19:06;;;;;;;;;;;5.20;99.90;;;;;;5057109;28;19904;-76
2024/01/03 03:21:32;;;;;;;;;;;5.30;99.90;;;;;;5057441;28;19923;-76
2024/01/03 03:23:57;;;;;;;;;;;5.20;99.90;;;;;;5057668;28;19905;-76
2024/01/03 03:26:23;;;;;;;;;;;5.10;99.90;;;;;;5057946;28;20266;-76
2024/01/03 03:28:48;;;;;;;;;;;5.10;99.90;;;;;;5057705;28;19908;-76
2024/01/03 03:31:15;;;;;;;;;;;5.10;99.90;;;;;;5039837;28;19951;-75
2024/01/03 03:33:41;;;;;;;;;;;5.00;99.90;;;;;;5057405;28;20000;-76
2024/01/03 03:36:13;;;;;;;;;;;5.30;99.90;;;;;;5057818;28;20372;-76
2024/01/03 03:38:38;;;;;;;;;;;5.30;99.90;;;;;;5039881;28;19909;-76
2024/01/03 03:41:11;;;;;;;;;;;5.40;99.90;;;;;;5040175;28;19908;-77
2024/01/03 03:43:37;;;;;;;;;;;5.20;99.90;;;;;;5040931;28;19912;-76
2024/01/03 03:46:03;;;;;;;;;;;5.10;99.90;;;;;;5059452;28;19909;-76
2024/01/03 03:48:28;;;;;;;;;;;5.10;99.90;;;;;;5040158;28;19915;-76
2024/01/03 03:50:56;;;;;;;;;;;5.10;99.90;;;;;;5055348;28;20345;-76
2024/01/03 03:53:21;;;;;;;;;;;5.10;99.90;;;;;;5055072;28;19999;-76
2024/01/03 03:55:47;;;;;;;;;;;5.20;99.90;;;;;;5037235;28;19948;-76
2024/01/03 03:58:12;;;;;;;;;;;5.20;99.90;;;;;;5054971;28;19931;-76
2024/01/03 04:00:38;;;;;;;;;;;5.30;99.90;;;;;;5036896;28;20003;-76
2024/01/03 04:03:07;;;;;;;;;;;5.20;99.90;;;;;;5055487;28;19908;-77
2024/01/03 04:05:34;;;;;;;;;;;5.30;99.90;;;;;;5055239;28;19959;-76
2024/01/03 04:08:00;;;;;;;;;;;5.30;99.90;;;;;;5037444;28;19908;-76
2024/01/03 04:10:25;;;;;;;;;;;5.20;99.90;;;;;;5055331;28;20329;-76
2024/01/03 04:12:52;;;;;;;;;;;5.20;99.90;;;;;;5036836;28;19911;-77
2024/01/03 04:15:19;;;;;;;;;;;5.30;99.90;;;;;;5055346;28;20349;-76
2024/01/03 04:17:44;;;;;;;;;;;5.30;99.90;;;;;;5056008;28;19905;-76
2024/01/03 04:20:10;;;;;;;;;;;5.20;99.90;;;;;;5055553;28;20335;-75
2024/01/03 04:22:35;;;;;;;;;;;5.20;99.90;;;;;;5037293;28;19917;-76
2024/01/03 04:25:01;;;;;;;;;;;5.10;99.90;;;;;;5055598;28;19905;-76
2024/01/03 04:27:27;;;;;;;;;;;5.20;99.90;;;;;;5055217;28;19909;-76
2024/01/03 04:29:52;;;;;;;;;;;5.20;99.90;;;;;;5055534;28;20007;-76
2024/01/03 04:32:18;;;;;;;;;;;5.20;99.90;;;;;;5056022;28;19909;-77
2024/01/03 04:34:44;;;;;;;;;;;5.20;99.90;;;;;;5055764;28;19917;-76
2024/01/03 04:37:09;;;;;;;;;;;5.20;99.90;;;;;;5037985;28;19911;-75
2024/01/03 04:39:35;;;;;;;;;;;5.20;99.90;;;;;;5038044;28;19904;-76
2024/01/03 04:42:00;;;;;;;;;;;5.30;99.90;;;;;;5053707;28;20003;-77
2024/01/03 04:44:26;;;;;;;;;;;5.20;99.90;;;;;;5054180;28;19944;-76
2024/01/03 04:46:51;;;;;;;;;;;5.20;99.90;;;;;;5055738;28;19905;-75
2024/01/03 04:49:17;;;;;;;;;;;5.20;99.90;;;;;;5056619;28;19912;-76
2024/01/03 04:51:42;;;;;;;;;;;5.20;99.90;;;;;;5056309;28;19931;-77
2024/01/03 04:54:08;;;;;;;;;;;5.30;99.90;;;;;;5056540;28;19904;-76
2024/01/03 04:56:35;;;;;;;;;;;5.30;99.90;;;;;;5038549;28;19909;-77
2024/01/03 04:59:03;;;;;;;;;;;5.20;99.90;;;;;;5039064;28;19908;-76
2024/01/03 05:01:28;;;;;;;;;;;5.30;99.90;;;;;;5038689;28;19913;-77
2024/01/03 05:03:54;;;;;;;;;;;5.20;99.90;;;;;;5057097;28;19964;-76
2024/01/03 05:06:19;;;;;;;;;;;5.20;99.90;;;;;;5057756;28;20384;-77
2024/01/03 05:08:45;;;;;;;;;;;5.30;99.90;;;;;;5040155;28;19950;-76
2024/01/03 05:11:11;;;;;;;;;;;5.30;99.90;;;;;;5056723;28;20011;-76
2024/01/03 05:13:36;;;;;;;;;;;5.30;99.90;;;;;;5036744;28;19909;-76
2024/01/03 05:16:02;;;;;;;;;;;5.30;99.90;;;;;;5053931;28;19905;-76
2024/01/03 05:18:28;;;;;;;;;;;5.20;99.90;;;;;;5053770;28;19935;-76
2024/01/03 05:20:53;;;;;;;;;;;5.40;99.90;;;;;;5036117;28;19935;-76
2024/01/03 05:23:19;;;;;;;;;;;5.30;99.90;;;;;;5054011;28;20284;-75
2024/01/03 05:25:44;;;;;;;;;;;5.40;99.90;;;;;;5054048;28;19905;-76
2024/01/03 05:28:10;;;;;;;;;;;5.30;99.90;;;;;;5054586;28;19908;-76
2024/01/03 05:30:35;;;;;;;;;;;5.30;99.90;;;;;;5054089;28;19927;-76
2024/01/03 05:33:01;;;;;;;;;;;5.30;99.90;;;;;;5054365;28;19915;-77
2024/01/03 05:35:26;;;;;;;;;;;5.30;99.90;;;;;;5055402;28;19908;-76
2024/01/03 05:37:52;;;;;;;;;;;5.40;99.90;;;;;;5037440;28;19909;-76
2024/01/03 05:40:20;;;;;;;;;;;5.40;99.90;;;;;;5055516;28;19904;-76
2024/01/03 05:42:51;;;;;;;;;;;5.30;99.90;;;;;;5037487;28;19958;-77
2024/01/03 05:45:18;;;;;;;;;;;5.40;99.90;;;;;;5056121;28;19912;-76
2024/01/03 05:47:43;;;;;;;;;;;5.40;99.90;;;;;;5036790;28;20373;-76
2024/01/03 05:50:09;;;;;;;;;;;5.40;99.90;;;;;;5056023;28;19912;-77
2024/01/03 05:52:35;;;;;;;;;;;5.40;99.90;;;;;;5057438;28;19908;-76
2024/01/03 05:55:02;;;;;;;;;;;5.50;99.90;;;;;;5037478;28;19905;-76
2024/01/03 05:57:28;;;;;;;;;;;5.40;99.90;;;;;;5053738;28;19927;-76
2024/01/03 05:59:54;;;;;;;;;;;5.40;99.90;;;;;;5056924;28;19904;-77
2024/01/03 06:02:19;;;;;;;;;;;5.50;99.90;;;;;;5056981;28;19963;-76
2024/01/03 06:04:46;;;;;;;;;;;5.40;99.90;;;;;;5056514;28;20004;-76
2024/01/03 06:07:12;;;;;;;;;;;5.50;99.90;;;;;;5039075;28;20319;-76
2024/01/03 06:09:37;;;;;;;;;;;5.50;99.90;;;;;;5056789;28;19905;-76
2024/01/03 06:12:03;;;;;;;;;;;5.40;99.90;;;;;;5056672;28;20257;-76
2024/01/03 06:14:28;;;;;;;;;;;5.50;99.90;;;;;;5056472;28;20396;-77
2024/01/03 06:16:55;;;;;;;;;;;5.50;99.90;;;;;;5057376;28;20015;-76
2024/01/03 06:19:21;;;;;;;;;;;5.50;99.90;;;;;;5057391;28;19992;-77
2024/01/03 06:21:46;;;;;;;;;;;5.50;99.90;;;;;;5056614;28;19944;-76
2024/01/03 06:24:12;;;;;;;;;;;5.50;99.90;;;;;;5038814;28;20519;-76
2024/01/03 06:26:38;;;;;;;;;;;5.60;99.90;;;;;;5056992;28;19913;-77
2024/01/03 06:29:03;;;;;;;;;;;5.50;99.90;;;;;;5057015;28;19904;-77
2024/01/03 06:31:29;;;;;;;;;;;5.50;99.90;;;;;;5056944;28;20427;-75
2024/01/03 06:33:55;;;;;;;;;;;5.60;99.90;;;;;;5057193;28;19999;-76
2024/01/03 06:36:21;;;;;;;;;;;5.70;99.90;;;;;;5039584;28;19912;-76
2024/01/03 06:38:46;;;;;;;;;;;5.60;99.90;;;;;;5038889;28;19912;-76
2024/01/03 06:41:12;;;;;;;;;;;5.70;99.90;;;;;;5057083;28;20406;-76
2024/01/03 06:43:37;;;;;;;;;;;5.70;99.90;;;;;;5057239;28;20424;-77
2024/01/03 06:46:05;;;;;;;;;;;5.70;99.90;;;;;;5039415;28;19934;-76
2024/01/03 06:48:31;;;;;;;;;;;5.70;99.90;;;;;;5056980;28;19905;-77
2024/01/03 06:50:56;;;;;;;;;;;5.80;99.90;;;;;;5039536;28;19911;-76
2024/01/03 06:53:22;;;;;;;;;;;5.70;99.90;;;;;;5057356;28;19909;-76
2024/01/03 06:55:47;;;;;;;;;;;5.70;99.90;;;;;;5039152;28;20274;-76
2024/01/03 06:58:14;;;;;;;;;;;5.70;99.90;;;;;;5038542;28;19905;-76
2024/01/03 07:00:40;;;;;;;;;;;5.70;99.90;;;;;;5056581;28;19905;-77
2024/01/03 07:03:06;;;;;;;;;;;5.70;99.90;;;;;;5055990;28;19912;-76
2024/01/03 07:05:31;;;;;;;;;;;5.70;99.90;;;;;;5037463;28;19992;-76
2024/01/03 07:07:58;;;;;;;;;;;5.80;99.90;;;;;;5055145;28;19916;-76
2024/01/03 07:10:31;;;;;;;;;;;5.80;99.90;;;;;;5037326;28;19912;-76
2024/01/03 07:13:00;;;;;;;;;;;5.80;99.90;;;;;;5055511;28;20376;-76
2024/01/03 07:15:26;;;;;;;;;;;5.90;99.90;;;;;;5055557;28;19991;-76
2024/01/03 07:17:51;;;;;;;;;;;5.90;99.90;;;;;;5055187;28;20407;-76
2024/01/03 07:20:17;;;;;;;;;;;5.90;99.90;;;;;;5037992;28;20357;-76
2024/01/03 07:22:43;;;;;;;;;;;5.90;99.90;;;;;;5055387;28;20005;-76
2024/01/03 07:25:08;;;;;;;;;;;6.00;99.90;;;;;;5037530;28;19905;-77
2024/01/03 07:27:34;;;;;;;;;;;6.10;99.90;;;;;;5055701;28;19905;-76
2024/01/03 07:29:59;;;;;;;;;;;6.20;99.90;;;;;;5037741;28;19911;-76
2024/01/03 07:32:26;;;;;;;;;;;6.20;99.90;;;;;;5039211;28;19916;-76
2024/01/03 07:34:52;;;;;;;;;;;6.30;99.90;;;;;;5040189;28;19924;-77
2024/01/03 07:37:17;;;;;;;;;;;6.30;99.90;;;;;;5058132;28;19904;-77
2024/01/03 07:39:43;;;;;;;;;;;6.40;99.90;;;;;;5040540;28;19905;-76
2024/01/03 07:42:09;;;;;;;;;;;6.40;99.90;;;;;;5040355;28;19920;-76
2024/01/03 07:44:41;;;;;;;;;;;6.50;99.90;;;;;;5058812;28;19908;-76
2024/01/03 07:47:06;;;;;;;;;;;6.60;99.90;;;;;;5040730;28;19908;-76
2024/01/03 07:49:32;;;;;;;;;;;6.60;99.90;;;;;;5040529;28;20054;-77
2024/01/03 07:51:57;;;;;;;;;;;6.60;99.90;;;;;;5040156;28;19915;-76
2024/01/03 07:54:23;;;;;;;;;;;6.60;99.90;;;;;;5058459;28;19904;-75
2024/01/03 07:56:48;;;;;;;;;;;6.60;99.90;;;;;;5058807;28;20392;-75
2024/01/03 07:59:14;;;;;;;;;;;6.60;99.90;;;;;;5041635;28;19991;-77
2024/01/03 08:01:39;;;;;;;;;;;6.60;99.90;;;;;;5042473;28;20272;-77
2024/01/03 08:04:05;;;;;;;;;;;6.70;99.90;;;;;;5057314;28;19911;-76
2024/01/03 08:06:31;;;;;;;;;;;6.90;99.90;;;;;;5056865;28;19924;-76
2024/01/03 08:08:56;;;;;;;;;;;7.30;99.90;;;;;;5038646;28;20019;-76
2024/01/03 08:11:23;;;;;;;;;;;7.80;99.90;;;;;;5056650;28;20407;-76
2024/01/03 08:13:48;;;;;;;;;;;8.40;99.90;;;;;;5038442;28;19909;-77
2024/01/03 08:16:15;;;;;;;;;;;9.00;99.90;;;;;;5039323;28;19912;-76
2024/01/03 08:18:40;;;;;;;;;;;9.60;99.90;;;;;;5039552;28;19911;-77
2024/01/03 08:21:07;;;;;;;;;;;10.00;99.90;;;;;;5057953;28;19908;-77
2024/01/03 08:23:34;;;;;;;;;;;10.40;99.90;;;;;;5041076;28;20042;-77
2024/01/03 08:25:59;;;;;;;;;;;10.70;99.90;;;;;;5041878;28;19905;-77
2024/01/03 08:28:25;;;;;;;;;;;10.90;99.90;;;;;;5055433;28;20721;-76
2024/01/03 08:30:51;;;;;;;;;;;11.10;99.90;;;;;;5037382;28;19958;-76
2024/01/03 08:33:17;;;;;;;;;;;11.10;99.90;;;;;;5036397;28;19916;-76
2024/01/03 08:35:42;;;;;;;;;;;11.00;99.90;;;;;;5037065;28;19909;-76
2024/01/03 08:38:08;;;;;;;;;;;10.80;99.90;;;;;;5055691;28;19909;-76
2024/01/03 08:40:33;;;;;;;;;;;10.60;99.90;;;;;;5055258;28;20288;-76
2024/01/03 08:42:59;;;;;;;;;;;10.20;99.90;;;;;;5037421;28;19916;-77
2024/01/03 08:45:24;;;;;;;;;;;10.00;99.90;;;;;;5037457;28;19909;-77
2024/01/03 08:47:50;;;;;;;;;;;9.70;99.90;;;;;;5036376;28;20343;-77
2024/01/03 08:50:16;;;;;;;;;;;9.50;99.90;;;;;;5055689;28;19905;-77
2024/01/03 08:52:42;;;;;;;;;;;9.30;99.90;;;;;;5055876;28;19936;-76
2024/01/03 08:55:07;;;;;;;;;;;9.10;99.90;;;;;;5037321;28;19912;-76
2024/01/03 08:57:33;;;;;;;;;;;9.00;99.90;;;;;;5055737;28;20451;-77
2024/01/03 08:59:58;;;;;;;;;;;9.00;99.90;;;;;;5056375;28;19905;-76
2024/01/03 09:02:24;;;;;;;;;;;8.90;99.90;;;;;;5037964;28;19913;-77
2024/01/03 09:04:50;;;;;;;;;;;8.90;99.90;;;;;;5056332;28;19905;-76
2024/01/03 09:07:18;;;;;;;;;;;9.00;99.90;;;;;;5056012;28;20296;-77
2024/01/03 09:09:43;;;;;;;;;;;9.00;99.90;;;;;;5056064;28;19927;-77
2024/01/03 09:12:09;;;;;;;;;;;9.00;99.90;;;;;;5035757;28;19905;-76
2024/01/03 09:14:35;;;;;;;;;;;9.00;99.90;;;;;;5053703;28;19911;-77
2024/01/03 09:17:00;;;;;;;;;;;9.00;99.90;;;;;;5055301;28;20262;-77
2024/01/03 09:19:26;;;;;;;;;;;8.90;99.90;;;;;;5038038;28;19977;-77
2024/01/03 09:21:51;;;;;;;;;;;9.00;99.90;;;;;;5037740;28;19944;-76
2024/01/03 09:24:17;;;;;;;;;;;9.00;99.90;;;;;;5055307;28;19926;-77
2024/01/03 09:26:44;;;;;;;;;;;8.90;99.90;;;;;;5055840;28;19908;-77
2024/01/03 09:29:09;;;;;;;;;;;9.00;99.90;;;;;;5038973;28;19916;-77
2024/01/03 09:31:42;;;;;;;;;;;9.00;99.90;;;;;;5057246;28;19905;-77
2024/01/03 09:34:08;;;;;;;;;;;9.00;99.90;;;;;;5041839;28;20301;-76
2024/01/03 09:36:33;;;;;;;;;;;9.00;99.90;;;;;;5061289;28;20364;-78
2024/01/03 09:38:59;;;;;;;;;;;8.90;99.90;;;;;;5061298;28;19912;-77
2024/01/03 09:41:25;;;;;;;;;;;8.80;99.90;;;;;;5043325;28;19917;-77
2024/01/03 09:43:55;;;;;;;;;;;8.70;99.90;;;;;;5060429;28;19904;-76
2024/01/03 09:46:20;;;;;;;;;;;8.70;99.90;;;;;;5060608;28;19905;-77
2024/01/03 09:48:47;;;;;;;;;;;8.70;99.90;;;;;;5060699;28;19939;-77
2024/01/03 09:51:12;;;;;;;;;;;8.70;99.90;;;;;;5043096;28;19967;-77
2024/01/03 09:53:39;;;;;;;;;;;8.80;99.90;;;;;;5060885;28;19905;-77
2024/01/03 09:56:05;;;;;;;;;;;9.00;99.90;;;;;;5043010;28;19904;-77
2024/01/03 09:58:32;;;;;;;;;;;9.00;99.90;;;;;;5041863;28;19908;-76
2024/01/03 10:00:57;;;;;;;;;;;9.20;99.90;;;;;;5040082;28;19942;-76
2024/01/03 10:03:23;;;;;;;;;;;9.20;99.90;;;;;;5060312;28;19982;-77
2024/01/03 10:06:03;;;;;;;;;;;9.30;99.90;;;;;;5060850;28;19912;-77
2024/01/03 10:08:28;;;;;;;;;;;9.50;99.90;;;;;;5045743;28;19916;-78
2024/01/03 10:10:54;;;;;;;;;;;9.40;99.90;;;;;;5041990;28;19905;-76
2024/01/03 10:13:20;;;;;;;;;;;9.40;99.90;;;;;;5041194;28;19931;-76
2024/01/03 10:15:46;;;;;;;;;;;9.50;99.90;;;;;;5052033;28;19905;-76
2024/01/03 10:18:14;;;;;;;;;;;9.60;99.90;;;;;;5040812;28;19905;-75
2024/01/03 10:20:42;;;;;;;;;;;9.60;99.90;;;;;;5058503;28;19916;-76
2024/01/03 10:23:11;;;;;;;;;;;9.60;99.90;;;;;;5056816;28;19924;-77
2024/01/03 10:25:41;;;;;;;;;;;9.70;99.90;;;;;;5040544;28;20369;-78
2024/01/03 10:28:08;;;;;;;;;;;9.70;99.90;;;;;;5040127;28;19995;-76
2024/01/03 10:30:34;;;;;;;;;;;9.70;99.90;;;;;;5058307;28;19904;-76
2024/01/03 10:33:00;;;;;;;;;;;9.90;99.90;;;;;;5040808;28;19915;-76
2024/01/03 10:35:29;;;;;;;;;;;9.90;99.90;;;;;;5059123;28;19912;-77
2024/01/03 10:37:56;;;;;;;;;;;9.90;99.90;;;;;;5040299;28;19905;-77
2024/01/03 10:40:25;;;;;;;;;;;10.00;99.90;;;;;;5058868;28;19911;-76
2024/01/03 10:42:51;;;;;;;;;;;9.80;99.90;;;;;;5040071;28;19912;-76
2024/01/03 10:45:17;;;;;;;;;;;9.90;99.90;;;;;;5056845;28;20022;-77
2024/01/03 10:47:43;;;;;;;;;;;9.90;99.90;;;;;;5040231;28;20323;-77
2024/01/03 10:50:09;;;;;;;;;;;9.80;99.90;;;;;;5040456;28;19904;-77
2024/01/03 10:52:37;;;;;;;;;;;10.00;99.90;;;;;;5040239;28;19915;-77
2024/01/03 10:55:06;;;;;;;;;;;10.00;99.90;;;;;;5040506;28;19930;-76
2024/01/03 10:57:35;;;;;;;;;;;10.10;99.90;;;;;;5057953;28;19963;-77
2024/01/03 11:00:24;;;;;;;;;;;10.10;99.90;;;;;;5040073;28;19905;-77
2024/01/03 11:02:59;;;;;;;;;;;10.20;99.90;;;;;;5048645;28;19919;-76
2024/01/03 11:05:31;;;;;;;;;;;10.10;99.90;;;;;;5058037;28;19977;-77
2024/01/03 11:08:02;;;;;;;;;;;10.10;99.90;;;;;;5058469;28;19905;-76
2024/01/03 11:10:56;;;;;;;;;;;10.10;99.90;;;;;;5058463;28;19905;-77
2024/01/03 11:13:40;;;;;;;;;;;10.10;99.90;;;;;;5057626;28;19908;-78
2024/01/03 11:16:06;;;;;;;;;;;10.20;99.90;;;;;;5038477;28;19912;-77
2024/01/03 11:18:41;;;;;;;;;;;10.30;99.90;;;;;;5059684;28;19927;-77
2024/01/03 11:21:27;;;;;;;;;;;10.30;99.90;;;;;;5042403;28;19909;-76
2024/01/03 11:23:53;;;;;;;;;;;10.20;99.90;;;;;;5060760;28;19912;-77
2024/01/03 11:26:18;;;;;;;;;;;10.20;99.90;;;;;;5060047;28;19991;-77
2024/01/03 11:28:52;;;;;;;;;;;10.20;99.90;;;;;;5042968;28;20395;-78
2024/01/03 11:31:40;;;;;;;;;;;10.30;99.90;;;;;;5042204;28;19916;-78
2024/01/03 11:34:26;;;;;;;;;;;10.30;99.90;;;;;;5038813;28;19916;-77
2024/01/03 11:36:52;;;;;;;;;;;10.30;99.90;;;;;;5038481;28;19909;-77
2024/01/03 11:39:41;;;;;;;;;;;10.40;99.90;;;;;;5040345;28;19909;-76
2024/01/03 11:42:07;;;;;;;;;;;10.50;99.90;;;;;;5042071;28;19972;-78
2024/01/03 11:44:32;;;;;;;;;;;10.50;99.90;;;;;;5040174;28;19963;-76
2024/01/03 11:47:04;;;;;;;;;;;10.50;99.90;;;;;;5034370;28;19912;-77
2024/01/03 11:49:33;;;;;;;;;;;10.60;99.90;;;;;;5032702;28;19974;-76
2024/01/03 11:51:59;;;;;;;;;;;10.60;99.90;;;;;;5034996;28;19904;-76
2024/01/03 11:54:25;;;;;;;;;;;10.60;99.90;;;;;;5033610;28;20435;-76
2024/01/03 11:56:50;;;;;;;;;;;10.50;99.90;;;;;;5034852;28;19905;-77
2024/01/03 11:59:19;;;;;;;;;;;10.40;99.90;;;;;;5035893;28;19905;-77
2024/01/03 12:01:55;;;;;;;;;;;10.40;99.90;;;;;;5034841;28;19909;-76
2024/01/03 12:04:21;;;;;;;;;;;10.40;99.90;;;;;;5034908;28;19971;-76
2024/01/03 12:06:46;;;;;;;;;;;10.30;99.90;;;;;;5035639;28;20366;-77
2024/01/03 12:09:12;;;;;;;;;;;10.30;99.90;;;;;;5035859;28;19939;-77
2024/01/03 12:11:38;;;;;;;;;;;10.30;99.90;;;;;;5034475;28;19905;-76
2024/01/03 12:14:03;;;;;;;;;;;10.20;99.90;;;;;;5034974;28;19905;-77
2024/01/03 12:16:29;;;;;;;;;;;10.20;99.90;;;;;;5032848;28;19955;-76
2024/01/03 12:18:55;;;;;;;;;;;10.30;99.90;;;;;;5036257;28;19913;-76
2024/01/03 12:21:20;;;;;;;;;;;10.30;99.90;;;;;;5032352;28;19909;-76
2024/01/03 12:23:59;;;;;;;;;;;10.30;99.90;;;;;;5031874;28;19916;-75
2024/01/03 12:26:25;;;;;;;;;;;10.30;99.90;;;;;;5032963;28;19909;-76
2024/01/03 12:28:53;;;;;;;;;;;10.30;99.90;;;;;;5031978;28;19905;-76
2024/01/03 12:31:20;;;;;;;;;;;10.40;99.90;;;;;;5031807;28;19909;-76
2024/01/03 12:33:46;;;;;;;;;;;10.30;99.90;;;;;;5031599;28;20401;-76
2024/01/03 12:36:11;;;;;;;;;;;10.20;99.90;;;;;;5032858;28;19912;-76
2024/01/03 12:38:37;;;;;;;;;;;10.20;99.90;;;;;;5031957;28;20467;-77
2024/01/03 12:41:03;;;;;;;;;;;10.20;99.90;;;;;;5032214;28;20284;-76
2024/01/03 12:43:29;;;;;;;;;;;10.20;99.90;;;;;;5033806;28;19912;-76
2024/01/03 12:45:55;;;;;;;;;;;10.20;99.90;;;;;;5033334;28;19905;-76
2024/01/03 12:48:21;;;;;;;;;;;10.20;99.90;;;;;;5031218;28;19905;-76
2024/01/03 12:50:47;;;;;;;;;;;10.20;99.90;;;;;;5031303;28;19909;-75
2024/01/03 12:53:13;;;;;;;;;;;10.30;99.90;;;;;;5031420;28;19906;-76
2024/01/03 12:55:38;;;;;;;;;;;10.30;99.90;;;;;;5033261;28;20511;-76
2024/01/03 12:58:04;;;;;;;;;;;10.40;99.90;;;;;;5032402;28;19909;-75
2024/01/03 13:00:29;;;;;;;;;;;10.40;99.90;;;;;;5032949;28;19905;-75
2024/01/03 13:02:55;;;;;;;;;;;10.40;99.90;;;;;;5038384;28;19924;-76
2024/01/03 13:05:20;;;;;;;;;;;10.50;99.90;;;;;;5034263;28;20377;-76
2024/01/03 13:07:46;;;;;;;;;;;10.50;99.90;;;;;;5033534;28;20595;-76
2024/01/03 13:10:14;;;;;;;;;;;10.50;99.90;;;;;;5032306;28;19909;-76
2024/01/03 13:12:39;;;;;;;;;;;10.50;99.90;;;;;;5033749;28;19928;-76
2024/01/03 13:15:05;;;;;;;;;;;10.50;99.90;;;;;;5032873;28;19909;-76
2024/01/03 13:17:31;;;;;;;;;;;10.50;99.90;;;;;;5034053;28;19947;-76
2024/01/03 13:19:57;;;;;;;;;;;10.50;99.90;;;;;;5034259;28;19905;-76
2024/01/03 13:22:22;;;;;;;;;;;10.40;99.90;;;;;;5033192;28;19967;-77
2024/01/03 13:24:48;;;;;;;;;;;10.40;99.90;;;;;;5033738;28;20523;-76
2024/01/03 13:27:14;;;;;;;;;;;10.40;99.90;;;;;;5033623;28;19954;-75
2024/01/03 13:29:40;;;;;;;;;;;10.40;99.90;;;;;;5032728;28;19905;-76
2024/01/03 13:32:05;;;;;;;;;;;10.50;99.90;;;;;;5032577;28;19916;-76
2024/01/03 13:34:32;;;;;;;;;;;10.50;99.90;;;;;;5049136;28;20034;-77
2024/01/03 13:36:58;;;;;;;;;;;10.60;99.90;;;;;;5035631;28;19909;-77
2024/01/03 13:39:23;;;;;;;;;;;10.60;99.90;;;;;;5036084;28;19908;-76
2024/01/03 13:41:49;;;;;;;;;;;10.60;99.90;;;;;;5054462;28;20320;-76
2024/01/03 13:44:14;;;;;;;;;;;10.60;99.90;;;;;;5035457;28;19909;-75
2024/01/03 13:46:40;;;;;;;;;;;10.60;99.90;;;;;;5054492;28;19954;-76
2024/01/03 13:49:08;;;;;;;;;;;10.60;99.90;;;;;;5052880;28;19908;-75
2024/01/03 13:51:35;;;;;;;;;;;10.60;99.90;;;;;;5036346;28;19909;-76
2024/01/03 13:54:00;;;;;;;;;;;10.50;99.90;;;;;;5054884;28;19905;-75
2024/01/03 13:56:27;;;;;;;;;;;10.50;99.90;;;;;;5054346;28;19930;-76
2024/01/03 13:58:53;;;;;;;;;;;10.50;99.90;;;;;;5036876;28;19904;-76
2024/01/03 14:01:20;;;;;;;;;;;10.50;99.90;;;;;;5054297;28;20323;-76
2024/01/03 14:03:46;;;;;;;;;;;10.50;99.90;;;;;;5036543;28;19967;-76
2024/01/03 14:06:12;;;;;;;;;;;10.50;99.90;;;;;;5036053;28;19909;-77
2024/01/03 14:08:38;;;;;;;;;;;10.50;99.90;;;;;;5055029;28;20354;-76
2024/01/03 14:11:04;;;;;;;;;;;10.40;99.90;;;;;;5054828;28;19913;-76
2024/01/03 14:13:31;;;;;;;;;;;10.40;99.90;;;;;;5037009;28;19932;-77
2024/01/03 14:15:57;;;;;;;;;;;10.30;99.90;;;;;;5037315;28;19916;-76
2024/01/03 14:18:23;;;;;;;;;;;10.30;99.90;;;;;;5056543;28;19908;-76
2024/01/03 14:20:48;;;;;;;;;;;10.10;99.90;;;;;;5040565;28;19940;-77
2024/01/03 14:23:14;;;;;;;;;;;10.10;99.90;;;;;;5058756;28;19912;-76